Time;durP1;ratioP1;P1;durP2;ratioP2;P2;SDS_P1;SDS_P2;PMS_P1;PMS_P2;Temp;Humidity;BMP_temperature;BMP_pressure;BME280_temperature;BME280_humidity;BME280_pressure;Samples;Min_cycle;Max_cycle;Signal;HPM_P1;HPM_P2
2022/06/19 00:00:07;;;;;;;11.63;2.58;;;;;;;;;;6186372;23;20022;-82
2022/06/19 00:02:34;;;;;;;13.73;2.40;;;;;;;;;;6185081;23;20014;-83
2022/06/19 00:05:01;;;;;;;11.68;1.73;;;;;;;;;;6184969;23;20030;-83
2022/06/19 00:07:30;;;;;;;12.40;2.42;;;;;;;;;;6182006;23;20735;-81
2022/06/19 00:09:57;;;;;;;10.10;1.65;;;;;;;;;;6183203;23;20025;-82
2022/06/19 00:12:24;;;;;;;10.18;1.77;;;;;;;;;;6184537;23;20034;-84
2022/06/19 00:14:51;;;;;;;16.35;2.90;;;;;;;;;;6184136;23;20026;-82
2022/06/19 00:17:21;;;;;;;10.25;2.03;;;;;;;;;;6183277;23;20865;-81
2022/06/19 00:19:48;;;;;;;16.60;2.40;;;;;;;;;;6181236;23;20053;-81
2022/06/19 00:22:15;;;;;;;11.88;2.58;;;;;;;;;;6182665;23;20009;-82
2022/06/19 00:24:45;;;;;;;16.10;2.85;;;;;;;;;;6183029;23;20022;-82
2022/06/19 00:27:12;;;;;;;9.07;1.85;;;;;;;;;;6181376;23;20104;-81
2022/06/19 00:29:39;;;;;;;15.50;1.98;;;;;;;;;;6181441;23;20017;-80
2022/06/19 00:32:07;;;;;;;15.48;2.53;;;;;;;;;;6182391;23;20018;-81
2022/06/19 00:34:38;;;;;;;15.10;2.28;;;;;;;;;;6181110;23;20010;-81
2022/06/19 00:37:06;;;;;;;16.60;2.90;;;;;;;;;;6182340;23;20018;-81
2022/06/19 00:39:39;;;;;;;10.48;1.90;;;;;;;;;;6181786;23;20010;-81
2022/06/19 00:42:11;;;;;;;15.90;2.58;;;;;;;;;;6183502;23;20032;-81
2022/06/19 00:44:38;;;;;;;15.52;2.15;;;;;;;;;;6183478;23;20033;-81
2022/06/19 00:47:08;;;;;;;14.57;2.17;;;;;;;;;;6156971;23;20078;-82
2022/06/19 00:49:35;;;;;;;10.02;1.83;;;;;;;;;;6181947;23;20014;-81
2022/06/19 00:52:05;;;;;;;20.92;2.53;;;;;;;;;;6181690;23;20065;-82
2022/06/19 00:54:45;;;;;;;13.68;3.15;;;;;;;;;;6184248;23;20013;-81
2022/06/19 00:57:16;;;;;;;10.00;1.73;;;;;;;;;;6178771;23;20010;-82
2022/06/19 00:59:46;;;;;;;12.68;2.20;;;;;;;;;;6181778;23;19994;-81
2022/06/19 01:02:14;;;;;;;14.52;2.45;;;;;;;;;;6180178;23;20081;-80
2022/06/19 01:04:48;;;;;;;14.55;2.72;;;;;;;;;;6179868;23;20041;-81
2022/06/19 01:07:15;;;;;;;22.25;2.60;;;;;;;;;;6179554;23;20045;-80
2022/06/19 01:09:44;;;;;;;15.15;2.40;;;;;;;;;;6180105;23;20030;-81
2022/06/19 01:12:12;;;;;;;21.13;2.47;;;;;;;;;;6182342;23;20041;-83
2022/06/19 01:14:41;;;;;;;11.43;1.92;;;;;;;;;;6181055;23;20053;-80
2022/06/19 01:17:10;;;;;;;9.95;1.77;;;;;;;;;;6179249;23;20065;-82
2022/06/19 01:19:41;;;;;;;6.45;1.45;;;;;;;;;;6177940;23;20026;-80
2022/06/19 01:22:34;;;;;;;10.18;2.13;;;;;;;;;;6177204;23;20026;-81
2022/06/19 01:25:04;;;;;;;12.45;2.13;;;;;;;;;;6172842;23;20405;-81
2022/06/19 01:30:20;;;;;;;12.00;2.17;;;;;;;;;;6177475;23;20058;-82
2022/06/19 01:32:48;;;;;;;9.35;1.80;;;;;;;;;;6176399;23;20024;-81
2022/06/19 01:35:17;;;;;;;9.65;1.83;;;;;;;;;;6177855;23;20062;-81
2022/06/19 01:37:47;;;;;;;14.15;2.08;;;;;;;;;;6175168;23;20036;-80
2022/06/19 01:40:21;;;;;;;10.38;2.10;;;;;;;;;;6176579;23;20018;-83
2022/06/19 01:42:48;;;;;;;12.07;1.88;;;;;;;;;;6176858;23;20144;-81
2022/06/19 01:45:16;;;;;;;14.18;2.40;;;;;;;;;;6150022;23;20066;-81
2022/06/19 01:47:43;;;;;;;9.27;2.17;;;;;;;;;;6148970;23;20109;-81
2022/06/19 01:50:13;;;;;;;9.63;1.95;;;;;;;;;;6174902;23;20077;-80
2022/06/19 01:52:40;;;;;;;13.80;2.08;;;;;;;;;;6178045;23;20834;-80
2022/06/19 01:55:10;;;;;;;8.00;1.50;;;;;;;;;;6178203;23;20055;-81
2022/06/19 01:57:40;;;;;;;8.60;1.75;;;;;;;;;;6178539;23;20022;-80
2022/06/19 02:00:08;;;;;;;8.27;1.45;;;;;;;;;;6179625;23;20041;-81
2022/06/19 02:02:35;;;;;;;14.18;1.40;;;;;;;;;;6177952;23;20065;-82
2022/06/19 02:05:03;;;;;;;6.38;1.20;;;;;;;;;;6179761;23;20093;-81
2022/06/19 02:07:34;;;;;;;6.70;1.45;;;;;;;;;;6178618;23;20034;-80
2022/06/19 02:10:02;;;;;;;4.25;1.20;;;;;;;;;;6153483;23;20746;-82
2022/06/19 02:12:30;;;;;;;9.05;1.10;;;;;;;;;;6179131;23;20002;-80
2022/06/19 02:14:57;;;;;;;5.15;1.20;;;;;;;;;;6179210;23;20018;-80
2022/06/19 02:17:31;;;;;;;5.72;1.17;;;;;;;;;;6178082;23;20014;-80
2022/06/19 02:19:58;;;;;;;7.75;1.20;;;;;;;;;;6179809;23;20053;-80
2022/06/19 02:22:25;;;;;;;2.80;0.80;;;;;;;;;;6181385;23;20029;-82
2022/06/19 02:24:52;;;;;;;6.47;1.38;;;;;;;;;;6154739;23;20026;-82
2022/06/19 02:27:19;;;;;;;9.25;1.42;;;;;;;;;;6179296;23;20033;-82
2022/06/19 02:29:47;;;;;;;7.15;1.55;;;;;;;;;;6180580;23;20034;-81
2022/06/19 02:32:20;;;;;;;6.95;1.20;;;;;;;;;;6180528;23;20045;-81
2022/06/19 02:34:48;;;;;;;11.73;1.50;;;;;;;;;;6179728;23;20070;-81
2022/06/19 02:37:17;;;;;;;5.53;1.30;;;;;;;;;;6179472;23;20074;-81
2022/06/19 02:39:50;;;;;;;6.22;1.17;;;;;;;;;;6180402;23;20018;-81
2022/06/19 02:42:20;;;;;;;6.90;1.38;;;;;;;;;;6180953;23;20100;-82
2022/06/19 02:44:49;;;;;;;9.13;1.42;;;;;;;;;;6180611;23;20022;-81
2022/06/19 02:47:16;;;;;;;11.98;1.40;;;;;;;;;;6180177;23;20078;-82
2022/06/19 02:49:44;;;;;;;7.10;1.08;;;;;;;;;;6181675;23;20018;-81
2022/06/19 02:52:12;;;;;;;7.97;1.52;;;;;;;;;;6155175;23;20033;-83
2022/06/19 02:54:39;;;;;;;7.30;1.50;;;;;;;;;;6181615;23;20064;-81
2022/06/19 02:57:07;;;;;;;5.60;1.20;;;;;;;;;;6180722;23;20037;-82
2022/06/19 02:59:35;;;;;;;7.72;1.15;;;;;;;;;;6182454;23;20014;-81
2022/06/19 03:02:02;;;;;;;10.10;1.27;;;;;;;;;;6183621;23;20009;-81
2022/06/19 03:04:33;;;;;;;6.90;1.02;;;;;;;;;;6181182;23;20030;-81
2022/06/19 03:07:01;;;;;;;8.25;1.67;;;;;;;;;;6179947;23;20022;-81
2022/06/19 03:09:30;;;;;;;9.05;1.70;;;;;;;;;;6179170;23;20034;-82
2022/06/19 03:11:57;;;;;;;8.73;1.42;;;;;;;;;;6180016;23;20069;-81
2022/06/19 03:14:25;;;;;;;10.63;1.73;;;;;;;;;;6181008;23;20040;-80
2022/06/19 03:16:52;;;;;;;9.23;1.92;;;;;;;;;;6153423;23;20098;-81
2022/06/19 03:19:19;;;;;;;9.25;1.60;;;;;;;;;;6180141;23;20064;-81
2022/06/19 03:21:49;;;;;;;6.80;1.40;;;;;;;;;;6180131;23;20078;-80
2022/06/19 03:24:16;;;;;;;12.40;2.03;;;;;;;;;;6180709;23;20022;-81
2022/06/19 03:26:43;;;;;;;8.65;1.55;;;;;;;;;;6180859;23;20032;-83
2022/06/19 03:29:10;;;;;;;6.72;1.80;;;;;;;;;;6179640;23;20064;-81
2022/06/19 03:31:37;;;;;;;10.55;1.90;;;;;;;;;;6179175;23;20066;-81
2022/06/19 03:34:05;;;;;;;12.35;2.10;;;;;;;;;;6178450;23;20054;-82
2022/06/19 03:36:32;;;;;;;16.35;2.10;;;;;;;;;;6182735;23;20070;-82
2022/06/19 03:38:59;;;;;;;10.98;1.80;;;;;;;;;;6183061;23;20069;-82
2022/06/19 03:41:26;;;;;;;15.75;1.98;;;;;;;;;;6183817;23;20037;-82
2022/06/19 03:43:53;;;;;;;12.45;1.60;;;;;;;;;;6181601;23;20014;-82
2022/06/19 03:46:20;;;;;;;14.63;2.10;;;;;;;;;;6182268;23;20048;-80
2022/06/19 03:48:50;;;;;;;11.68;1.80;;;;;;;;;;6181213;23;20112;-81
2022/06/19 03:51:17;;;;;;;17.15;2.42;;;;;;;;;;6181699;23;20062;-81
2022/06/19 03:53:45;;;;;;;12.90;2.22;;;;;;;;;;6181843;23;20138;-81
2022/06/19 03:56:16;;;;;;;11.82;2.17;;;;;;;;;;6180467;23;20049;-81
2022/06/19 03:58:46;;;;;;;6.90;1.52;;;;;;;;;;6179470;23;20014;-81
2022/06/19 04:01:18;;;;;;;18.27;1.88;;;;;;;;;;6179321;23;20049;-80
2022/06/19 04:03:46;;;;;;;9.10;1.85;;;;;;;;;;6179421;23;20021;-81
2022/06/19 04:06:14;;;;;;;12.85;2.15;;;;;;;;;;6180321;23;20013;-81
2022/06/19 04:08:44;;;;;;;10.73;2.30;;;;;;;;;;6155450;23;20070;-82
2022/06/19 04:11:12;;;;;;;12.70;1.98;;;;;;;;;;6181422;23;20021;-82
2022/06/19 04:13:39;;;;;;;14.65;2.35;;;;;;;;;;6184043;23;20078;-81
2022/06/19 04:16:07;;;;;;;7.70;1.60;;;;;;;;;;6183244;23;20037;-82
2022/06/19 04:18:34;;;;;;;12.75;1.70;;;;;;;;;;6183853;23;20070;-81
2022/06/19 04:21:03;;;;;;;11.90;1.83;;;;;;;;;;6183618;23;20034;-82
2022/06/19 04:23:30;;;;;;;9.80;1.33;;;;;;;;;;6183961;23;20017;-82
2022/06/19 04:25:57;;;;;;;9.90;1.90;;;;;;;;;;6182543;23;20006;-81
2022/06/19 04:28:24;;;;;;;10.55;1.58;;;;;;;;;;6179886;23;20090;-81
2022/06/19 04:30:52;;;;;;;7.93;1.67;;;;;;;;;;6156230;23;20021;-84
2022/06/19 04:33:20;;;;;;;16.80;1.58;;;;;;;;;;6182699;23;20025;-81
2022/06/19 04:35:48;;;;;;;9.23;1.20;;;;;;;;;;6182873;23;20057;-82
2022/06/19 04:38:17;;;;;;;11.77;1.85;;;;;;;;;;6183467;23;20002;-81
2022/06/19 04:40:44;;;;;;;12.23;1.52;;;;;;;;;;6183241;23;20074;-83
2022/06/19 04:43:12;;;;;;;7.60;1.50;;;;;;;;;;6185793;23;20006;-82
2022/06/19 04:45:40;;;;;;;8.70;1.50;;;;;;;;;;6185554;23;20054;-82
2022/06/19 04:48:08;;;;;;;10.00;1.48;;;;;;;;;;6184344;23;20022;-81
2022/06/19 04:50:35;;;;;;;7.78;1.70;;;;;;;;;;6159449;23;20013;-82
2022/06/19 04:53:03;;;;;;;7.03;1.40;;;;;;;;;;6185978;23;20061;-82
2022/06/19 04:55:30;;;;;;;6.63;1.45;;;;;;;;;;6185941;23;20013;-84
2022/06/19 04:58:03;;;;;;;9.25;1.50;;;;;;;;;;6186095;23;20038;-82
2022/06/19 05:00:31;;;;;;;9.70;2.03;;;;;;;;;;6183294;23;20059;-81
2022/06/19 05:02:58;;;;;;;11.32;1.33;;;;;;;;;;6183928;23;20020;-83
2022/06/19 05:05:26;;;;;;;10.85;1.42;;;;;;;;;;6183570;23;20843;-82
2022/06/19 05:07:53;;;;;;;14.23;1.92;;;;;;;;;;6182379;23;20054;-81
2022/06/19 05:10:20;;;;;;;6.25;1.48;;;;;;;;;;6182705;23;20018;-82
2022/06/19 05:12:47;;;;;;;6.72;1.50;;;;;;;;;;6182986;23;20264;-82
2022/06/19 05:15:14;;;;;;;6.20;1.55;;;;;;;;;;6156993;23;20014;-81
2022/06/19 05:17:41;;;;;;;7.97;1.73;;;;;;;;;;6182755;23;20022;-81
2022/06/19 05:20:08;;;;;;;8.50;1.70;;;;;;;;;;6182480;23;20078;-82
2022/06/19 05:22:35;;;;;;;9.82;1.77;;;;;;;;;;6182667;23;20082;-81
2022/06/19 05:25:04;;;;;;;10.10;1.80;;;;;;;;;;6181644;23;20097;-83
2022/06/19 05:27:31;;;;;;;11.02;2.00;;;;;;;;;;6181832;23;20065;-81
2022/06/19 05:30:00;;;;;;;7.35;1.55;;;;;;;;;;6182588;23;20050;-81
2022/06/19 05:32:27;;;;;;;9.45;1.77;;;;;;;;;;6183539;23;20018;-82
2022/06/19 05:34:54;;;;;;;10.40;1.83;;;;;;;;;;6182326;23;20018;-82
2022/06/19 05:37:21;;;;;;;10.18;1.70;;;;;;;;;;6182776;23;20022;-81
2022/06/19 05:39:49;;;;;;;12.70;1.73;;;;;;;;;;6183334;23;20018;-80
2022/06/19 05:42:20;;;;;;;10.90;1.85;;;;;;;;;;6182718;23;20045;-82
2022/06/19 05:44:47;;;;;;;8.57;1.70;;;;;;;;;;6182612;23;20080;-81
2022/06/19 05:47:14;;;;;;;9.65;1.67;;;;;;;;;;6156479;23;20029;-81
2022/06/19 05:49:42;;;;;;;11.30;2.03;;;;;;;;;;6181242;23;20022;-82
2022/06/19 05:52:20;;;;;;;12.10;2.08;;;;;;;;;;6182594;23;20018;-81
2022/06/19 05:54:47;;;;;;;14.25;2.28;;;;;;;;;;6182528;23;20018;-81
2022/06/19 05:57:14;;;;;;;10.13;2.10;;;;;;;;;;6180670;23;20271;-82
2022/06/19 05:59:44;;;;;;;17.60;2.78;;;;;;;;;;6180816;23;20010;-83
2022/06/19 06:02:18;;;;;;;11.93;1.98;;;;;;;;;;6179996;23;20015;-82
2022/06/19 06:04:45;;;;;;;15.45;2.33;;;;;;;;;;6181492;23;20078;-83
2022/06/19 06:07:13;;;;;;;16.20;2.67;;;;;;;;;;6154665;23;20036;-81
2022/06/19 06:09:40;;;;;;;13.60;2.55;;;;;;;;;;6181404;23;20010;-81
2022/06/19 06:12:07;;;;;;;15.27;2.33;;;;;;;;;;6181330;23;20046;-82
2022/06/19 06:14:34;;;;;;;15.10;2.20;;;;;;;;;;6182144;23;20018;-82
2022/06/19 06:17:01;;;;;;;13.55;2.30;;;;;;;;;;6182500;23;20062;-81
2022/06/19 06:19:28;;;;;;;13.10;2.13;;;;;;;;;;6180160;23;20599;-81
2022/06/19 06:21:55;;;;;;;14.55;2.58;;;;;;;;;;6183092;23;20014;-81
2022/06/19 06:24:22;;;;;;;15.00;2.20;;;;;;;;;;6183671;23;20112;-81
2022/06/19 06:26:49;;;;;;;13.75;2.30;;;;;;;;;;6184533;23;20025;-83
2022/06/19 06:29:17;;;;;;;14.15;2.55;;;;;;;;;;6183706;23;20038;-81
2022/06/19 06:31:44;;;;;;;16.45;2.13;;;;;;;;;;6183313;23;20029;-81
2022/06/19 06:34:15;;;;;;;14.30;2.40;;;;;;;;;;6182959;23;20026;-83
2022/06/19 06:36:42;;;;;;;16.38;2.35;;;;;;;;;;6156560;23;20065;-82
2022/06/19 06:39:09;;;;;;;20.02;2.75;;;;;;;;;;6181338;23;20070;-82
2022/06/19 06:41:37;;;;;;;18.45;2.60;;;;;;;;;;6181178;23;20070;-81
2022/06/19 06:44:04;;;;;;;14.55;2.35;;;;;;;;;;6180679;23;20074;-81
2022/06/19 06:46:38;;;;;;;18.75;2.58;;;;;;;;;;6178663;23;20029;-80
2022/06/19 06:49:05;;;;;;;18.75;3.38;;;;;;;;;;6177086;23;20811;-80
2022/06/19 06:51:33;;;;;;;19.15;2.65;;;;;;;;;;6174922;23;20010;-81
2022/06/19 06:54:00;;;;;;;20.20;3.40;;;;;;;;;;6174512;23;20060;-80
2022/06/19 06:56:34;;;;;;;18.00;3.08;;;;;;;;;;6173749;23;20014;-80
2022/06/19 06:59:01;;;;;;;17.58;2.92;;;;;;;;;;6174886;23;20018;-82
2022/06/19 07:01:30;;;;;;;20.52;2.30;;;;;;;;;;6176173;23;20022;-81
2022/06/19 07:04:00;;;;;;;16.15;2.60;;;;;;;;;;6176474;23;20022;-80
2022/06/19 07:06:28;;;;;;;10.40;2.38;;;;;;;;;;6174585;23;20113;-80
2022/06/19 07:08:56;;;;;;;18.90;2.33;;;;;;;;;;6173208;23;20028;-80
2022/06/19 07:11:24;;;;;;;15.05;2.15;;;;;;;;;;6170266;23;20028;-81
2022/06/19 07:13:51;;;;;;;19.20;2.80;;;;;;;;;;6142796;23;20025;-81
2022/06/19 07:16:18;;;;;;;13.55;2.17;;;;;;;;;;6168481;23;20061;-79
2022/06/19 07:18:46;;;;;;;15.35;2.55;;;;;;;;;;6169348;23;20018;-81
2022/06/19 07:21:13;;;;;;;14.05;2.65;;;;;;;;;;6141742;23;20018;-80
2022/06/19 07:23:41;;;;;;;18.55;2.72;;;;;;;;;;6169346;23;20029;-80
2022/06/19 07:26:09;;;;;;;25.00;3.63;;;;;;;;;;6175524;23;20037;-80
2022/06/19 07:28:36;;;;;;;22.20;2.92;;;;;;;;;;6173523;23;20082;-81
2022/06/19 07:31:03;;;;;;;16.65;2.83;;;;;;;;;;6175331;23;20078;-81
2022/06/19 07:33:31;;;;;;;15.00;2.65;;;;;;;;;;6183852;23;20018;-80
2022/06/19 07:35:58;;;;;;;13.45;2.40;;;;;;;;;;6183963;23;20010;-83
2022/06/19 07:38:25;;;;;;;18.77;2.83;;;;;;;;;;6183419;23;20029;-81
2022/06/19 07:40:52;;;;;;;11.30;2.33;;;;;;;;;;6182482;23;20018;-80
2022/06/19 07:43:19;;;;;;;13.60;2.60;;;;;;;;;;6182357;23;20026;-81
2022/06/19 07:45:46;;;;;;;12.38;2.35;;;;;;;;;;6157238;23;20006;-81
2022/06/19 07:50:59;;;;;;;14.10;1.85;;;;;;;;;;6183797;23;20052;-81
2022/06/19 07:53:26;;;;;;;13.65;2.28;;;;;;;;;;6182784;23;20098;-80
2022/06/19 07:55:53;;;;;;;20.40;2.65;;;;;;;;;;6183571;23;20002;-80
2022/06/19 07:58:21;;;;;;;15.52;2.60;;;;;;;;;;6183326;23;20010;-81
2022/06/19 08:00:48;;;;;;;16.38;2.28;;;;;;;;;;6184462;23;20018;-82
2022/06/19 08:03:15;;;;;;;13.02;2.13;;;;;;;;;;6182789;23;20033;-82
2022/06/19 08:05:45;;;;;;;12.10;1.90;;;;;;;;;;6183722;23;20017;-81
2022/06/19 08:08:21;;;;;;;13.10;2.30;;;;;;;;;;6181893;23;20925;-81
2022/06/19 08:10:50;;;;;;;10.52;2.50;;;;;;;;;;6181547;23;20061;-80
2022/06/19 08:13:22;;;;;;;15.80;2.45;;;;;;;;;;6181627;23;20069;-81
2022/06/19 08:15:49;;;;;;;8.70;2.22;;;;;;;;;;6183019;23;20021;-80
2022/06/19 08:18:16;;;;;;;12.50;2.03;;;;;;;;;;6183128;23;20056;-81
2022/06/19 08:20:44;;;;;;;12.57;2.38;;;;;;;;;;6184303;23;20029;-81
2022/06/19 08:23:11;;;;;;;8.15;1.90;;;;;;;;;;6184227;23;20025;-80
2022/06/19 08:25:38;;;;;;;13.13;2.15;;;;;;;;;;6182980;23;20006;-80
2022/06/19 08:28:06;;;;;;;10.73;2.10;;;;;;;;;;6182038;23;20012;-82
2022/06/19 08:30:35;;;;;;;10.95;2.20;;;;;;;;;;6182404;23;20017;-81
2022/06/19 08:33:07;;;;;;;8.85;2.22;;;;;;;;;;6183463;23;20014;-80
2022/06/19 08:35:37;;;;;;;11.07;1.88;;;;;;;;;;6183912;23;20032;-81
2022/06/19 08:38:09;;;;;;;14.88;2.22;;;;;;;;;;6183301;23;20026;-81
2022/06/19 08:40:39;;;;;;;14.07;2.27;;;;;;;;;;6184336;23;20077;-80
2022/06/19 08:43:09;;;;;;;15.02;2.30;;;;;;;;;;6183249;23;20187;-81
2022/06/19 08:46:03;;;;;;;16.30;2.40;;;;;;;;;;6183777;23;20077;-81
2022/06/19 08:48:51;;;;;;;10.07;2.38;;;;;;;;;;6183251;23;20006;-81
2022/06/19 08:51:37;;;;;;;11.52;2.20;;;;;;;;;;6158958;23;20042;-82
2022/06/19 08:54:04;;;;;;;14.27;2.20;;;;;;;;;;6185801;23;20026;-82
2022/06/19 08:56:37;;;;;;;11.68;2.45;;;;;;;;;;6185470;23;20039;-81
2022/06/19 08:59:36;;;;;;;10.35;2.13;;;;;;;;;;6185295;23;20022;-82
2022/06/19 09:02:10;;;;;;;12.88;2.22;;;;;;;;;;6120406;23;20065;-81
2022/06/19 09:07:38;;;;;;;8.82;1.70;;;;;;;;;;6183271;23;45035;-82
2022/06/19 09:10:08;;;;;;;9.55;2.00;;;;;;;;;;6184714;23;20034;-82
2022/06/19 09:12:41;;;;;;;11.35;2.00;;;;;;;;;;6185530;23;20224;-81
2022/06/19 09:15:11;;;;;;;7.00;1.58;;;;;;;;;;6186154;23;20013;-82
2022/06/19 09:17:47;;;;;;;6.85;1.63;;;;;;;;;;6186695;23;20070;-81
2022/06/19 09:20:23;;;;;;;12.75;1.90;;;;;;;;;;6186062;23;20050;-81
2022/06/19 09:23:01;;;;;;;11.63;1.92;;;;;;;;;;6186176;23;20005;-83
2022/06/19 09:25:34;;;;;;;9.52;2.30;;;;;;;;;;6185816;23;20014;-82
2022/06/19 09:28:02;;;;;;;11.10;2.00;;;;;;;;;;6185875;23;20037;-82
2022/06/19 09:30:39;;;;;;;11.10;1.80;;;;;;;;;;6185194;23;20021;-82
2022/06/19 09:33:10;;;;;;;9.77;2.08;;;;;;;;;;6160520;23;20033;-82
2022/06/19 09:35:40;;;;;;;11.45;2.20;;;;;;;;;;6184492;23;20010;-82
2022/06/19 09:38:09;;;;;;;9.93;2.10;;;;;;;;;;6159658;23;20014;-82
2022/06/19 09:40:41;;;;;;;13.05;2.03;;;;;;;;;;6184280;23;20014;-81
2022/06/19 09:43:20;;;;;;;13.68;2.65;;;;;;;;;;6175979;23;20073;-80
2022/06/19 09:45:50;;;;;;;14.38;2.30;;;;;;;;;;6145238;23;20826;-81
2022/06/19 09:48:23;;;;;;;14.70;2.40;;;;;;;;;;6168098;23;20129;-81
2022/06/19 09:50:53;;;;;;;11.68;2.22;;;;;;;;;;6172804;23;20014;-80
2022/06/19 09:53:36;;;;;;;12.07;2.50;;;;;;;;;;6170686;23;20060;-81
2022/06/19 09:56:43;;;;;;;16.35;2.90;;;;;;;;;;6174219;23;20032;-82
2022/06/19 09:59:18;;;;;;;10.48;2.53;;;;;;;;;;6177691;23;20062;-81
2022/06/19 10:01:46;;;;;;;11.68;2.42;;;;;;;;;;6177744;23;20029;-80
2022/06/19 10:04:20;;;;;;;15.15;2.33;;;;;;;;;;6150122;23;20774;-81
2022/06/19 10:06:47;;;;;;;;;;;;;;;;;;6148686;23;20029;-81
2022/06/19 10:09:22;;;;;;;9.65;2.15;;;;;;;;;;6174218;23;43830;-80
2022/06/19 10:11:53;;;;;;;17.33;2.60;;;;;;;;;;6176380;23;20877;-82
2022/06/19 10:14:29;;;;;;;13.80;2.70;;;;;;;;;;6171931;23;20045;-80
2022/06/19 10:17:05;;;;;;;9.57;2.22;;;;;;;;;;6177076;23;20022;-81
2022/06/19 10:19:38;;;;;;;8.90;2.00;;;;;;;;;;6172510;23;20046;-82
2022/06/19 10:22:15;;;;;;;10.43;1.83;;;;;;;;;;6166329;23;20289;-80
2022/06/19 10:24:58;;;;;;;9.52;2.35;;;;;;;;;;6166745;23;20061;-80
2022/06/19 10:27:31;;;;;;;10.43;2.13;;;;;;;;;;6144235;23;20082;-81
2022/06/19 10:30:07;;;;;;;10.55;2.13;;;;;;;;;;6172298;23;20018;-80
2022/06/19 10:32:50;;;;;;;12.63;2.03;;;;;;;;;;6175752;23;20082;-83
2022/06/19 10:35:24;;;;;;;12.38;2.53;;;;;;;;;;6173344;23;20093;-80
2022/06/19 10:37:51;;;;;;;;;;;;;;;;;;6174153;23;20114;-80
2022/06/19 10:40:36;;;;;;;12.23;2.35;;;;;;;;;;6172021;23;44749;-80
2022/06/19 10:43:19;;;;;;;10.75;2.50;;;;;;;;;;6169498;23;20075;-81
2022/06/19 10:45:48;;;;;;;9.48;2.20;;;;;;;;;;6169426;23;20026;-80
2022/06/19 10:48:19;;;;;;;13.20;2.65;;;;;;;;;;6169408;23;20044;-81
2022/06/19 10:50:54;;;;;;;8.60;1.90;;;;;;;;;;6168340;23;20022;-81
2022/06/19 10:53:30;;;;;;;11.75;2.40;;;;;;;;;;6168748;23;20204;-80
2022/06/19 10:56:02;;;;;;;10.00;2.03;;;;;;;;;;6170043;23;20022;-83
2022/06/19 10:58:30;;;;;;;8.75;2.10;;;;;;;;;;6168244;23;20026;-80
2022/06/19 11:01:02;;;;;;;11.00;1.70;;;;;;;;;;6169516;23;20010;-80
2022/06/19 11:06:39;;;;;;;9.25;1.70;;;;;;;;;;6170341;23;20033;-80
2022/06/19 11:09:09;;;;;;;12.68;2.40;;;;;;;;;;6171743;23;20018;-81
2022/06/19 11:11:38;;;;;;;10.18;1.70;;;;;;;;;;6177621;23;20025;-80
2022/06/19 11:14:13;;;;;;;9.63;1.75;;;;;;;;;;6179178;23;20024;-82
2022/06/19 11:16:59;;;;;;;13.10;2.30;;;;;;;;;;6176605;23;20014;-80
2022/06/19 11:19:32;;;;;;;10.95;2.13;;;;;;;;;;6174418;23;20049;-81
2022/06/19 11:22:28;;;;;;;9.30;2.20;;;;;;;;;;6149968;23;20037;-80
2022/06/19 11:24:56;;;;;;;10.60;1.95;;;;;;;;;;6172585;23;20069;-80
2022/06/19 11:27:26;;;;;;;4.95;1.42;;;;;;;;;;6148075;23;20025;-81
2022/06/19 11:29:59;;;;;;;6.72;1.85;;;;;;;;;;6175437;23;20026;-81
2022/06/19 11:32:27;;;;;;;7.43;1.75;;;;;;;;;;6175719;23;20127;-81
2022/06/19 11:35:03;;;;;;;11.05;1.88;;;;;;;;;;6178610;23;19998;-82
2022/06/19 11:37:37;;;;;;;7.32;1.60;;;;;;;;;;6181483;23;20629;-81
2022/06/19 11:40:04;;;;;;;;;;;;;;;;;;6181463;23;20022;-81
2022/06/19 11:42:31;;;;;;;10.70;1.85;;;;;;;;;;6180000;23;45007;-82
2022/06/19 11:45:20;;;;;;;8.70;1.48;;;;;;;;;;6180654;23;20013;-80
2022/06/19 11:47:58;;;;;;;7.97;1.63;;;;;;;;;;6180121;23;20026;-80
2022/06/19 11:50:35;;;;;;;6.53;1.42;;;;;;;;;;6181078;23;20014;-83
2022/06/19 11:53:11;;;;;;;9.65;1.80;;;;;;;;;;6180115;23;20061;-81
2022/06/19 11:55:40;;;;;;;9.45;1.77;;;;;;;;;;6178260;23;20025;-81
2022/06/19 11:58:39;;;;;;;5.82;1.40;;;;;;;;;;6169113;23;20081;-80
2022/06/19 12:01:15;;;;;;;7.15;1.65;;;;;;;;;;6103157;23;20899;-82
2022/06/19 12:03:50;;;;;;;5.57;1.40;;;;;;;;;;6170027;23;20058;-81
2022/06/19 12:06:19;;;;;;;13.82;2.40;;;;;;;;;;6172550;23;20109;-82
2022/06/19 12:09:01;;;;;;;8.88;2.13;;;;;;;;;;6175058;23;20041;-81
2022/06/19 12:11:40;;;;;;;9.27;1.87;;;;;;;;;;6172669;23;20030;-80
2022/06/19 12:14:08;;;;;;;6.82;1.63;;;;;;;;;;6173964;23;20040;-81
2022/06/19 12:16:36;;;;;;;9.80;2.08;;;;;;;;;;6173573;23;20045;-81
2022/06/19 12:19:21;;;;;;;8.98;1.83;;;;;;;;;;6172266;23;20057;-82
2022/06/19 12:21:52;;;;;;;7.43;1.35;;;;;;;;;;6172673;23;20017;-81
2022/06/19 12:24:22;;;;;;;7.50;1.60;;;;;;;;;;6176067;23;20034;-81
2022/06/19 12:26:51;;;;;;;6.13;1.55;;;;;;;;;;6171542;23;20022;-82
2022/06/19 12:29:19;;;;;;;8.27;1.67;;;;;;;;;;6184672;23;20021;-83
2022/06/19 12:31:47;;;;;;;6.55;1.50;;;;;;;;;;6185520;23;20014;-83
2022/06/19 12:34:30;;;;;;;7.88;1.55;;;;;;;;;;6160758;23;20006;-83
2022/06/19 12:36:58;;;;;;;6.05;1.58;;;;;;;;;;6186599;23;20287;-82
2022/06/19 12:39:29;;;;;;;11.00;1.52;;;;;;;;;;6186446;23;20021;-83
2022/06/19 12:42:10;;;;;;;6.93;1.65;;;;;;;;;;6187156;23;20030;-83
2022/06/19 12:44:40;;;;;;;5.00;1.40;;;;;;;;;;6184225;23;20022;-82
2022/06/19 12:47:22;;;;;;;6.28;1.65;;;;;;;;;;6179814;23;20017;-81
2022/06/19 12:49:59;;;;;;;7.88;1.60;;;;;;;;;;6178597;23;20028;-82
2022/06/19 12:52:45;;;;;;;6.78;1.35;;;;;;;;;;6171763;23;20101;-81
2022/06/19 12:55:20;;;;;;;6.43;1.42;;;;;;;;;;6164465;23;20030;-80
2022/06/19 12:57:48;;;;;;;7.60;1.67;;;;;;;;;;6170723;23;20042;-80
2022/06/19 13:00:21;;;;;;;8.55;1.27;;;;;;;;;;6176409;23;20025;-81
2022/06/19 13:02:51;;;;;;;6.25;1.30;;;;;;;;;;6165788;23;20021;-81
2022/06/19 13:05:42;;;;;;;12.05;1.60;;;;;;;;;;6169325;23;20030;-81
2022/06/19 13:08:12;;;;;;;10.35;1.80;;;;;;;;;;6140769;23;20833;-81
2022/06/19 13:10:48;;;;;;;7.28;1.30;;;;;;;;;;6169032;23;20041;-81
2022/06/19 13:13:44;;;;;;;4.88;1.20;;;;;;;;;;6161549;23;20028;-80
2022/06/19 13:16:12;;;;;;;5.97;1.23;;;;;;;;;;6160729;23;20026;-83
2022/06/19 13:18:46;;;;;;;6.55;1.30;;;;;;;;;;6161390;23;20025;-80
2022/06/19 13:21:13;;;;;;;5.78;1.58;;;;;;;;;;6159739;23;20030;-80
2022/06/19 13:23:46;;;;;;;4.18;1.10;;;;;;;;;;6159335;23;20029;-80
2022/06/19 13:29:20;;;;;;;2.80;1.13;;;;;;;;;;6159792;23;20117;-80
2022/06/19 13:31:55;;;;;;;3.33;1.23;;;;;;;;;;6177704;23;20057;-82
2022/06/19 13:34:31;;;;;;;4.22;1.00;;;;;;;;;;6170955;23;20029;-81
2022/06/19 13:37:13;;;;;;;10.35;1.30;;;;;;;;;;6170248;23;20408;-81
2022/06/19 13:39:55;;;;;;;4.55;1.70;;;;;;;;;;6170648;23;20121;-80
2022/06/19 13:42:41;;;;;;;3.53;1.00;;;;;;;;;;6170004;23;20086;-81
2022/06/19 13:45:10;;;;;;;4.55;1.17;;;;;;;;;;6166801;23;20179;-80
2022/06/19 13:47:46;;;;;;;5.82;1.23;;;;;;;;;;6165534;23;20030;-81
2022/06/19 13:50:13;;;;;;;6.13;1.33;;;;;;;;;;6161520;23;20155;-81
2022/06/19 13:52:49;;;;;;;5.90;1.30;;;;;;;;;;6165886;23;20022;-81
2022/06/19 13:55:16;;;;;;;3.03;0.93;;;;;;;;;;6139739;23;20037;-80
2022/06/19 13:57:52;;;;;;;3.80;1.20;;;;;;;;;;6168689;23;20032;-82
2022/06/19 14:00:33;;;;;;;7.00;1.63;;;;;;;;;;6167744;23;20026;-80
2022/06/19 14:03:12;;;;;;;8.18;1.33;;;;;;;;;;6166015;23;20077;-81
2022/06/19 14:05:48;;;;;;;4.05;1.20;;;;;;;;;;6137496;23;20021;-80
2022/06/19 14:08:53;;;;;;;7.75;1.30;;;;;;;;;;6139985;23;20838;-81
2022/06/19 14:12:03;;;;;;;6.03;1.50;;;;;;;;;;6044100;23;20028;-81
2022/06/19 14:14:16;;;;;;;8.05;1.40;;;;;;;;;;6050319;23;20048;-81
2022/06/19 14:16:54;;;;;;;5.13;1.35;;;;;;;;;;6046491;23;20479;-81
2022/06/19 14:19:23;;;;;;;5.82;1.35;;;;;;;;;;6048482;23;20758;-81
2022/06/19 14:22:00;;;;;;;9.40;1.50;;;;;;;;;;6045455;23;20038;-82
2022/06/19 14:24:46;;;;;;;5.82;1.35;;;;;;;;;;6047467;23;20044;-81
2022/06/19 14:27:19;;;;;;;6.80;1.35;;;;;;;;;;6050479;23;20058;-82
2022/06/19 14:29:49;;;;;;;7.70;1.67;;;;;;;;;;6029523;23;20061;-81
2022/06/19 14:32:18;;;;;;;8.00;1.50;;;;;;;;;;6053360;23;20024;-81
2022/06/19 14:35:08;;;;;;;8.65;1.60;;;;;;;;;;6024402;23;20083;-80
2022/06/19 14:37:45;;;;;;;6.20;1.57;;;;;;;;;;6047754;23;20020;-80
2022/06/19 14:40:21;;;;;;;6.97;1.55;;;;;;;;;;6049595;23;20016;-81
2022/06/19 14:42:48;;;;;;;8.82;1.60;;;;;;;;;;6049623;23;20080;-80
2022/06/19 14:45:18;;;;;;;11.10;1.90;;;;;;;;;;6103863;23;20010;-80
2022/06/19 14:47:45;;;;;;;6.78;1.65;;;;;;;;;;6165836;23;20050;-80
2022/06/19 14:50:34;;;;;;;10.98;1.65;;;;;;;;;;6164974;23;20081;-80
2022/06/19 14:53:28;;;;;;;7.90;1.80;;;;;;;;;;6139055;23;20030;-81
2022/06/19 14:56:12;;;;;;;10.57;1.65;;;;;;;;;;6140886;23;20030;-80
2022/06/19 14:58:44;;;;;;;6.83;1.70;;;;;;;;;;6163872;23;20025;-80
2022/06/19 15:01:29;;;;;;;8.13;1.73;;;;;;;;;;6140948;23;20285;-80
2022/06/19 15:03:59;;;;;;;22.77;11.02;;;;;;;;;;6162077;23;20125;-79
2022/06/19 15:06:58;;;;;;;10.55;4.53;;;;;;;;;;6161708;23;20493;-80
2022/06/19 15:09:26;;;;;;;7.22;2.10;;;;;;;;;;6073401;23;20448;-80
2022/06/19 15:12:07;;;;;;;13.05;1.90;;;;;;;;;;6138021;23;20888;-80
2022/06/19 15:14:46;;;;;;;10.00;2.63;;;;;;;;;;6161810;23;20108;-80